sensor_id;sensor_type;location;lat;lon;timestamp;P1;durP1;ratioP1;P2;durP2;ratioP2
65583;SDS011;73032;43.592;1.458;2023-10-19T00:01:17;3.45;;;1.20;;
65583;SDS011;73032;43.592;1.458;2023-10-19T00:03:44;3.75;;;1.30;;
65583;SDS011;73032;43.592;1.458;2023-10-19T00:06:11;3.42;;;1.00;;
65583;SDS011;73032;43.592;1.458;2023-10-19T00:08:38;2.55;;;1.20;;
65583;SDS011;73032;43.592;1.458;2023-10-19T00:11:08;2.72;;;1.20;;
65583;SDS011;73032;43.592;1.458;2023-10-19T00:13:37;3.30;;;1.40;;
65583;SDS011;73032;43.592;1.458;2023-10-19T00:16:05;3.67;;;1.30;;
65583;SDS011;73032;43.592;1.458;2023-10-19T00:18:49;2.72;;;1.23;;
65583;SDS011;73032;43.592;1.458;2023-10-19T00:21:16;2.38;;;1.30;;
65583;SDS011;73032;43.592;1.458;2023-10-19T00:23:54;2.28;;;1.10;;
65583;SDS011;73032;43.592;1.458;2023-10-19T00:26:32;6.00;;;1.80;;
65583;SDS011;73032;43.592;1.458;2023-10-19T00:28:59;3.20;;;1.20;;
65583;SDS011;73032;43.592;1.458;2023-10-19T00:31:31;2.85;;;1.20;;
65583;SDS011;73032;43.592;1.458;2023-10-19T00:34:03;2.75;;;1.33;;
65583;SDS011;73032;43.592;1.458;2023-10-19T00:36:30;3.40;;;1.30;;
65583;SDS011;73032;43.592;1.458;2023-10-19T00:38:58;3.25;;;1.60;;
65583;SDS011;73032;43.592;1.458;2023-10-19T00:41:27;3.00;;;1.40;;
65583;SDS011;73032;43.592;1.458;2023-10-19T00:43:58;3.08;;;1.38;;
65583;SDS011;73032;43.592;1.458;2023-10-19T00:49:08;3.22;;;1.35;;
65583;SDS011;73032;43.592;1.458;2023-10-19T00:51:39;3.50;;;1.27;;
65583;SDS011;73032;43.592;1.458;2023-10-19T00:56:56;2.88;;;1.42;;
65583;SDS011;73032;43.592;1.458;2023-10-19T00:59:29;3.97;;;1.42;;
65583;SDS011;73032;43.592;1.458;2023-10-19T01:01:56;2.50;;;1.20;;
65583;SDS011;73032;43.592;1.458;2023-10-19T01:04:43;4.32;;;1.60;;
65583;SDS011;73032;43.592;1.458;2023-10-19T01:07:12;3.53;;;1.70;;
65583;SDS011;73032;43.592;1.458;2023-10-19T01:09:47;4.95;;;1.58;;
65583;SDS011;73032;43.592;1.458;2023-10-19T01:12:19;4.70;;;1.70;;
65583;SDS011;73032;43.592;1.458;2023-10-19T01:17:53;4.85;;;1.80;;
65583;SDS011;73032;43.592;1.458;2023-10-19T01:20:24;3.50;;;1.67;;
65583;SDS011;73032;43.592;1.458;2023-10-19T01:25:20;3.78;;;1.77;;
65583;SDS011;73032;43.592;1.458;2023-10-19T01:28:08;5.30;;;1.90;;
65583;SDS011;73032;43.592;1.458;2023-10-19T01:30:36;5.00;;;1.58;;
65583;SDS011;73032;43.592;1.458;2023-10-19T01:33:04;3.88;;;1.92;;
65583;SDS011;73032;43.592;1.458;2023-10-19T01:35:39;5.03;;;1.73;;
65583;SDS011;73032;43.592;1.458;2023-10-19T01:38:24;4.13;;;2.10;;
65583;SDS011;73032;43.592;1.458;2023-10-19T01:40:51;4.53;;;1.92;;
65583;SDS011;73032;43.592;1.458;2023-10-19T01:43:21;5.15;;;2.00;;
65583;SDS011;73032;43.592;1.458;2023-10-19T01:45:48;2.75;;;1.70;;
65583;SDS011;73032;43.592;1.458;2023-10-19T01:48:20;2.78;;;1.35;;
65583;SDS011;73032;43.592;1.458;2023-10-19T01:50:49;4.78;;;1.50;;
65583;SDS011;73032;43.592;1.458;2023-10-19T01:53:17;4.55;;;1.58;;
65583;SDS011;73032;43.592;1.458;2023-10-19T01:55:44;4.18;;;1.63;;
65583;SDS011;73032;43.592;1.458;2023-10-19T01:58:13;3.03;;;1.60;;
65583;SDS011;73032;43.592;1.458;2023-10-19T02:00:41;4.50;;;1.45;;
65583;SDS011;73032;43.592;1.458;2023-10-19T02:03:10;5.30;;;1.60;;
65583;SDS011;73032;43.592;1.458;2023-10-19T02:05:37;4.40;;;1.55;;
65583;SDS011;73032;43.592;1.458;2023-10-19T02:08:07;3.15;;;1.58;;
65583;SDS011;73032;43.592;1.458;2023-10-19T02:10:34;3.47;;;1.60;;
65583;SDS011;73032;43.592;1.458;2023-10-19T02:13:02;3.90;;;1.50;;
65583;SDS011;73032;43.592;1.458;2023-10-19T02:15:35;3.13;;;1.55;;
65583;SDS011;73032;43.592;1.458;2023-10-19T02:18:02;3.22;;;1.48;;
65583;SDS011;73032;43.592;1.458;2023-10-19T02:20:29;6.05;;;1.88;;
65583;SDS011;73032;43.592;1.458;2023-10-19T02:23:09;6.00;;;1.60;;
65583;SDS011;73032;43.592;1.458;2023-10-19T02:25:36;6.35;;;1.88;;
65583;SDS011;73032;43.592;1.458;2023-10-19T02:28:04;7.88;;;1.98;;
65583;SDS011;73032;43.592;1.458;2023-10-19T02:30:35;6.63;;;1.65;;
65583;SDS011;73032;43.592;1.458;2023-10-19T02:33:02;6.80;;;1.60;;
65583;SDS011;73032;43.592;1.458;2023-10-19T02:35:30;9.35;;;2.25;;
65583;SDS011;73032;43.592;1.458;2023-10-19T02:37:57;8.40;;;2.30;;
65583;SDS011;73032;43.592;1.458;2023-10-19T02:40:24;4.78;;;1.85;;
65583;SDS011;73032;43.592;1.458;2023-10-19T02:42:51;6.05;;;1.80;;
65583;SDS011;73032;43.592;1.458;2023-10-19T02:45:19;9.57;;;1.90;;
65583;SDS011;73032;43.592;1.458;2023-10-19T02:47:46;9.18;;;2.00;;
65583;SDS011;73032;43.592;1.458;2023-10-19T02:50:13;11.55;;;2.00;;
65583;SDS011;73032;43.592;1.458;2023-10-19T02:52:42;6.50;;;1.80;;
65583;SDS011;73032;43.592;1.458;2023-10-19T02:55:10;12.00;;;2.08;;
65583;SDS011;73032;43.592;1.458;2023-10-19T02:57:36;10.52;;;1.90;;
65583;SDS011;73032;43.592;1.458;2023-10-19T03:00:06;9.25;;;2.22;;
65583;SDS011;73032;43.592;1.458;2023-10-19T03:02:40;7.90;;;1.95;;
65583;SDS011;73032;43.592;1.458;2023-10-19T03:05:07;8.70;;;1.70;;
65583;SDS011;73032;43.592;1.458;2023-10-19T03:07:44;8.55;;;1.95;;
65583;SDS011;73032;43.592;1.458;2023-10-19T03:10:10;12.73;;;2.10;;
65583;SDS011;73032;43.592;1.458;2023-10-19T03:12:56;7.85;;;1.70;;
65583;SDS011;73032;43.592;1.458;2023-10-19T03:15:23;9.70;;;2.20;;
65583;SDS011;73032;43.592;1.458;2023-10-19T03:17:50;9.32;;;2.17;;
65583;SDS011;73032;43.592;1.458;2023-10-19T03:20:17;9.85;;;1.90;;
65583;SDS011;73032;43.592;1.458;2023-10-19T03:22:49;6.68;;;1.55;;
65583;SDS011;73032;43.592;1.458;2023-10-19T03:25:16;7.22;;;1.85;;
65583;SDS011;73032;43.592;1.458;2023-10-19T03:28:02;7.38;;;1.83;;
65583;SDS011;73032;43.592;1.458;2023-10-19T03:30:37;6.30;;;1.42;;
65583;SDS011;73032;43.592;1.458;2023-10-19T03:33:08;5.80;;;1.80;;
65583;SDS011;73032;43.592;1.458;2023-10-19T03:35:36;11.15;;;2.00;;
65583;SDS011;73032;43.592;1.458;2023-10-19T03:38:04;9.82;;;2.10;;
65583;SDS011;73032;43.592;1.458;2023-10-19T03:43:18;5.43;;;1.42;;
65583;SDS011;73032;43.592;1.458;2023-10-19T03:45:48;7.85;;;1.75;;
65583;SDS011;73032;43.592;1.458;2023-10-19T03:48:19;6.18;;;1.52;;
65583;SDS011;73032;43.592;1.458;2023-10-19T03:51:00;8.90;;;1.70;;
65583;SDS011;73032;43.592;1.458;2023-10-19T03:53:29;7.88;;;1.70;;
65583;SDS011;73032;43.592;1.458;2023-10-19T03:55:57;12.43;;;1.80;;
65583;SDS011;73032;43.592;1.458;2023-10-19T03:58:24;6.88;;;1.50;;
65583;SDS011;73032;43.592;1.458;2023-10-19T04:00:50;6.72;;;1.80;;
65583;SDS011;73032;43.592;1.458;2023-10-19T04:03:17;8.07;;;1.48;;
65583;SDS011;73032;43.592;1.458;2023-10-19T04:05:44;4.03;;;1.33;;
65583;SDS011;73032;43.592;1.458;2023-10-19T04:08:15;4.35;;;1.30;;
65583;SDS011;73032;43.592;1.458;2023-10-19T04:10:47;4.45;;;1.40;;
65583;SDS011;73032;43.592;1.458;2023-10-19T04:13:34;4.38;;;1.55;;
65583;SDS011;73032;43.592;1.458;2023-10-19T04:16:01;7.68;;;1.63;;
65583;SDS011;73032;43.592;1.458;2023-10-19T04:18:29;9.73;;;2.13;;
65583;SDS011;73032;43.592;1.458;2023-10-19T04:20:56;9.43;;;1.42;;
65583;SDS011;73032;43.592;1.458;2023-10-19T04:23:24;8.98;;;1.70;;
65583;SDS011;73032;43.592;1.458;2023-10-19T04:28:24;9.52;;;2.08;;
65583;SDS011;73032;43.592;1.458;2023-10-19T04:30:58;10.65;;;2.13;;
65583;SDS011;73032;43.592;1.458;2023-10-19T04:33:30;6.47;;;1.65;;
65583;SDS011;73032;43.592;1.458;2023-10-19T04:35:58;6.32;;;1.50;;
65583;SDS011;73032;43.592;1.458;2023-10-19T04:38:27;6.78;;;1.63;;
65583;SDS011;73032;43.592;1.458;2023-10-19T04:41:09;7.53;;;1.67;;
65583;SDS011;73032;43.592;1.458;2023-10-19T04:43:37;5.22;;;1.27;;
65583;SDS011;73032;43.592;1.458;2023-10-19T04:46:09;7.00;;;1.38;;
65583;SDS011;73032;43.592;1.458;2023-10-19T04:48:38;10.40;;;1.80;;
65583;SDS011;73032;43.592;1.458;2023-10-19T04:51:06;9.10;;;1.90;;
65583;SDS011;73032;43.592;1.458;2023-10-19T04:53:35;4.95;;;1.23;;
65583;SDS011;73032;43.592;1.458;2023-10-19T04:56:02;4.97;;;1.25;;
65583;SDS011;73032;43.592;1.458;2023-10-19T04:58:30;5.60;;;1.38;;
65583;SDS011;73032;43.592;1.458;2023-10-19T05:00:57;3.38;;;1.08;;
65583;SDS011;73032;43.592;1.458;2023-10-19T05:03:27;5.63;;;1.20;;
65583;SDS011;73032;43.592;1.458;2023-10-19T05:05:54;10.82;;;1.52;;
65583;SDS011;73032;43.592;1.458;2023-10-19T05:08:23;5.90;;;1.25;;
65583;SDS011;73032;43.592;1.458;2023-10-19T05:10:54;4.13;;;1.20;;
65583;SDS011;73032;43.592;1.458;2023-10-19T05:15:49;3.45;;;1.30;;
65583;SDS011;73032;43.592;1.458;2023-10-19T05:18:16;7.40;;;1.60;;
65583;SDS011;73032;43.592;1.458;2023-10-19T05:20:43;3.78;;;1.02;;
65583;SDS011;73032;43.592;1.458;2023-10-19T05:23:10;4.95;;;1.30;;
65583;SDS011;73032;43.592;1.458;2023-10-19T05:25:36;4.88;;;1.17;;
65583;SDS011;73032;43.592;1.458;2023-10-19T05:28:04;6.63;;;0.98;;
65583;SDS011;73032;43.592;1.458;2023-10-19T05:30:32;5.03;;;1.33;;
65583;SDS011;73032;43.592;1.458;2023-10-19T05:32:59;5.40;;;1.30;;
65583;SDS011;73032;43.592;1.458;2023-10-19T05:35:28;4.38;;;1.20;;
65583;SDS011;73032;43.592;1.458;2023-10-19T05:37:58;4.30;;;1.20;;
65583;SDS011;73032;43.592;1.458;2023-10-19T05:40:25;4.93;;;0.95;;
65583;SDS011;73032;43.592;1.458;2023-10-19T05:42:57;3.53;;;1.40;;
65583;SDS011;73032;43.592;1.458;2023-10-19T05:45:26;4.20;;;1.08;;
65583;SDS011;73032;43.592;1.458;2023-10-19T05:47:55;7.47;;;1.50;;
65583;SDS011;73032;43.592;1.458;2023-10-19T05:50:24;4.78;;;0.90;;
65583;SDS011;73032;43.592;1.458;2023-10-19T05:52:51;3.05;;;1.00;;
65583;SDS011;73032;43.592;1.458;2023-10-19T05:55:21;3.67;;;1.00;;
65583;SDS011;73032;43.592;1.458;2023-10-19T05:57:48;8.50;;;1.00;;
65583;SDS011;73032;43.592;1.458;2023-10-19T06:00:15;2.30;;;1.00;;
65583;SDS011;73032;43.592;1.458;2023-10-19T06:02:43;3.92;;;1.10;;
65583;SDS011;73032;43.592;1.458;2023-10-19T06:05:15;3.08;;;1.00;;
65583;SDS011;73032;43.592;1.458;2023-10-19T06:07:43;4.68;;;1.20;;
65583;SDS011;73032;43.592;1.458;2023-10-19T06:10:14;5.13;;;1.00;;
65583;SDS011;73032;43.592;1.458;2023-10-19T06:12:44;3.55;;;1.35;;
65583;SDS011;73032;43.592;1.458;2023-10-19T06:15:12;5.25;;;1.20;;
65583;SDS011;73032;43.592;1.458;2023-10-19T06:17:39;4.43;;;1.30;;
65583;SDS011;73032;43.592;1.458;2023-10-19T06:20:08;5.30;;;1.38;;
65583;SDS011;73032;43.592;1.458;2023-10-19T06:22:58;7.38;;;1.42;;
65583;SDS011;73032;43.592;1.458;2023-10-19T06:25:32;12.10;;;1.60;;
65583;SDS011;73032;43.592;1.458;2023-10-19T06:30:29;7.43;;;1.50;;
65583;SDS011;73032;43.592;1.458;2023-10-19T06:32:56;6.38;;;1.73;;
65583;SDS011;73032;43.592;1.458;2023-10-19T06:35:28;4.20;;;1.40;;
65583;SDS011;73032;43.592;1.458;2023-10-19T06:37:58;11.10;;;1.65;;
65583;SDS011;73032;43.592;1.458;2023-10-19T06:40:26;4.25;;;1.20;;
65583;SDS011;73032;43.592;1.458;2023-10-19T06:42:57;7.45;;;1.48;;
65583;SDS011;73032;43.592;1.458;2023-10-19T06:45:25;4.93;;;1.17;;
65583;SDS011;73032;43.592;1.458;2023-10-19T06:47:52;9.18;;;1.63;;
65583;SDS011;73032;43.592;1.458;2023-10-19T06:50:20;6.32;;;1.70;;
65583;SDS011;73032;43.592;1.458;2023-10-19T06:52:47;6.80;;;1.38;;
65583;SDS011;73032;43.592;1.458;2023-10-19T06:55:15;7.53;;;1.50;;
65583;SDS011;73032;43.592;1.458;2023-10-19T06:57:47;4.68;;;1.30;;
65583;SDS011;73032;43.592;1.458;2023-10-19T07:00:19;5.47;;;1.10;;
65583;SDS011;73032;43.592;1.458;2023-10-19T07:02:51;5.20;;;1.38;;
65583;SDS011;73032;43.592;1.458;2023-10-19T07:05:19;2.92;;;1.30;;
65583;SDS011;73032;43.592;1.458;2023-10-19T07:07:56;5.60;;;1.30;;
65583;SDS011;73032;43.592;1.458;2023-10-19T07:10:26;10.25;;;1.30;;
65583;SDS011;73032;43.592;1.458;2023-10-19T07:12:56;6.83;;;1.13;;
65583;SDS011;73032;43.592;1.458;2023-10-19T07:15:24;4.07;;;1.30;;
65583;SDS011;73032;43.592;1.458;2023-10-19T07:17:52;8.88;;;1.60;;
65583;SDS011;73032;43.592;1.458;2023-10-19T07:20:21;5.88;;;1.20;;
65583;SDS011;73032;43.592;1.458;2023-10-19T07:22:52;6.72;;;1.50;;
65583;SDS011;73032;43.592;1.458;2023-10-19T07:25:20;4.72;;;1.40;;
65583;SDS011;73032;43.592;1.458;2023-10-19T07:27:48;2.75;;;1.10;;
65583;SDS011;73032;43.592;1.458;2023-10-19T07:30:16;5.20;;;1.30;;
65583;SDS011;73032;43.592;1.458;2023-10-19T07:32:48;7.20;;;1.52;;
65583;SDS011;73032;43.592;1.458;2023-10-19T07:35:18;3.47;;;1.17;;
65583;SDS011;73032;43.592;1.458;2023-10-19T07:37:46;6.30;;;1.33;;
65583;SDS011;73032;43.592;1.458;2023-10-19T07:40:15;7.70;;;1.35;;
65583;SDS011;73032;43.592;1.458;2023-10-19T07:42:42;5.38;;;1.17;;
65583;SDS011;73032;43.592;1.458;2023-10-19T07:45:09;5.82;;;1.73;;
65583;SDS011;73032;43.592;1.458;2023-10-19T07:47:38;5.18;;;1.27;;
65583;SDS011;73032;43.592;1.458;2023-10-19T07:50:10;4.05;;;1.83;;
65583;SDS011;73032;43.592;1.458;2023-10-19T07:52:44;3.72;;;1.30;;
65583;SDS011;73032;43.592;1.458;2023-10-19T07:55:14;9.27;;;1.37;;
65583;SDS011;73032;43.592;1.458;2023-10-19T07:57:42;4.00;;;1.30;;
65583;SDS011;73032;43.592;1.458;2023-10-19T08:00:09;3.28;;;1.50;;
65583;SDS011;73032;43.592;1.458;2023-10-19T08:02:40;2.65;;;1.00;;
65583;SDS011;73032;43.592;1.458;2023-10-19T08:05:08;4.65;;;1.38;;
65583;SDS011;73032;43.592;1.458;2023-10-19T08:07:41;4.63;;;1.30;;
65583;SDS011;73032;43.592;1.458;2023-10-19T08:10:14;3.83;;;1.42;;
65583;SDS011;73032;43.592;1.458;2023-10-19T08:12:43;4.80;;;1.15;;
65583;SDS011;73032;43.592;1.458;2023-10-19T08:15:14;10.38;;;1.75;;
65583;SDS011;73032;43.592;1.458;2023-10-19T08:17:43;7.32;;;1.30;;
65583;SDS011;73032;43.592;1.458;2023-10-19T08:20:14;6.18;;;1.48;;
65583;SDS011;73032;43.592;1.458;2023-10-19T08:22:52;4.18;;;1.25;;
65583;SDS011;73032;43.592;1.458;2023-10-19T08:25:20;4.93;;;1.30;;
65583;SDS011;73032;43.592;1.458;2023-10-19T08:27:48;5.03;;;1.30;;
65583;SDS011;73032;43.592;1.458;2023-10-19T08:30:20;6.15;;;1.40;;
65583;SDS011;73032;43.592;1.458;2023-10-19T08:32:52;4.82;;;1.30;;
65583;SDS011;73032;43.592;1.458;2023-10-19T08:35:19;3.03;;;1.20;;
65583;SDS011;73032;43.592;1.458;2023-10-19T08:37:51;8.35;;;1.48;;
65583;SDS011;73032;43.592;1.458;2023-10-19T08:40:25;5.72;;;1.40;;
65583;SDS011;73032;43.592;1.458;2023-10-19T08:42:53;6.32;;;1.40;;
65583;SDS011;73032;43.592;1.458;2023-10-19T08:45:21;4.68;;;1.55;;
65583;SDS011;73032;43.592;1.458;2023-10-19T08:47:55;2.75;;;1.17;;
65583;SDS011;73032;43.592;1.458;2023-10-19T08:50:24;4.13;;;1.40;;
65583;SDS011;73032;43.592;1.458;2023-10-19T08:52:53;6.90;;;1.10;;
65583;SDS011;73032;43.592;1.458;2023-10-19T08:55:20;7.65;;;1.50;;
65583;SDS011;73032;43.592;1.458;2023-10-19T08:58:06;3.45;;;1.80;;
65583;SDS011;73032;43.592;1.458;2023-10-19T09:00:43;6.95;;;1.60;;
65583;SDS011;73032;43.592;1.458;2023-10-19T09:03:23;6.53;;;1.65;;
65583;SDS011;73032;43.592;1.458;2023-10-19T09:05:53;10.63;;;1.67;;
65583;SDS011;73032;43.592;1.458;2023-10-19T09:08:20;5.75;;;1.40;;
65583;SDS011;73032;43.592;1.458;2023-10-19T09:10:49;4.90;;;1.52;;
65583;SDS011;73032;43.592;1.458;2023-10-19T09:13:18;4.03;;;1.40;;
65583;SDS011;73032;43.592;1.458;2023-10-19T09:15:46;5.78;;;1.33;;
65583;SDS011;73032;43.592;1.458;2023-10-19T09:18:16;6.97;;;1.90;;
65583;SDS011;73032;43.592;1.458;2023-10-19T09:20:48;7.25;;;1.73;;
65583;SDS011;73032;43.592;1.458;2023-10-19T09:23:20;2.92;;;1.42;;
65583;SDS011;73032;43.592;1.458;2023-10-19T09:25:52;7.05;;;1.50;;
65583;SDS011;73032;43.592;1.458;2023-10-19T09:28:22;3.55;;;1.33;;
65583;SDS011;73032;43.592;1.458;2023-10-19T09:30:51;4.75;;;1.75;;
65583;SDS011;73032;43.592;1.458;2023-10-19T09:33:18;8.48;;;1.70;;
65583;SDS011;73032;43.592;1.458;2023-10-19T09:35:48;6.68;;;1.70;;
65583;SDS011;73032;43.592;1.458;2023-10-19T09:38:19;6.03;;;1.83;;
65583;SDS011;73032;43.592;1.458;2023-10-19T09:40:49;6.32;;;1.55;;
65583;SDS011;73032;43.592;1.458;2023-10-19T09:46:06;5.75;;;1.92;;
65583;SDS011;73032;43.592;1.458;2023-10-19T09:48:40;10.32;;;1.95;;
65583;SDS011;73032;43.592;1.458;2023-10-19T09:51:09;10.50;;;1.63;;
65583;SDS011;73032;43.592;1.458;2023-10-19T09:53:39;5.47;;;1.52;;
65583;SDS011;73032;43.592;1.458;2023-10-19T09:56:10;6.07;;;1.60;;
65583;SDS011;73032;43.592;1.458;2023-10-19T09:58:45;10.57;;;2.38;;
65583;SDS011;73032;43.592;1.458;2023-10-19T10:01:15;6.78;;;1.70;;
65583;SDS011;73032;43.592;1.458;2023-10-19T10:06:11;5.18;;;1.70;;
65583;SDS011;73032;43.592;1.458;2023-10-19T10:08:38;6.90;;;2.10;;
65583;SDS011;73032;43.592;1.458;2023-10-19T10:11:13;9.10;;;2.03;;
65583;SDS011;73032;43.592;1.458;2023-10-19T10:13:43;5.80;;;2.15;;
65583;SDS011;73032;43.592;1.458;2023-10-19T10:16:29;5.28;;;1.90;;
65583;SDS011;73032;43.592;1.458;2023-10-19T10:18:59;7.15;;;1.90;;
65583;SDS011;73032;43.592;1.458;2023-10-19T10:23:57;4.95;;;1.83;;
65583;SDS011;73032;43.592;1.458;2023-10-19T10:26:29;4.53;;;2.00;;
65583;SDS011;73032;43.592;1.458;2023-10-19T10:29:23;7.97;;;1.92;;
65583;SDS011;73032;43.592;1.458;2023-10-19T10:31:50;5.28;;;1.55;;
65583;SDS011;73032;43.592;1.458;2023-10-19T10:37:00;6.85;;;1.98;;
65583;SDS011;73032;43.592;1.458;2023-10-19T10:39:33;7.43;;;2.33;;
65583;SDS011;73032;43.592;1.458;2023-10-19T10:42:03;6.50;;;1.75;;
65583;SDS011;73032;43.592;1.458;2023-10-19T10:44:35;11.32;;;1.98;;
65583;SDS011;73032;43.592;1.458;2023-10-19T10:47:08;5.80;;;1.80;;
65583;SDS011;73032;43.592;1.458;2023-10-19T10:55:13;7.15;;;2.20;;
65583;SDS011;73032;43.592;1.458;2023-10-19T10:57:41;5.55;;;1.90;;
65583;SDS011;73032;43.592;1.458;2023-10-19T11:00:09;4.85;;;1.70;;
65583;SDS011;73032;43.592;1.458;2023-10-19T11:02:45;4.82;;;1.50;;
65583;SDS011;73032;43.592;1.458;2023-10-19T11:05:14;4.13;;;1.67;;
65583;SDS011;73032;43.592;1.458;2023-10-19T11:07:46;6.43;;;1.70;;
65583;SDS011;73032;43.592;1.458;2023-10-19T11:10:41;9.30;;;2.42;;
65583;SDS011;73032;43.592;1.458;2023-10-19T11:13:13;4.18;;;1.40;;
65583;SDS011;73032;43.592;1.458;2023-10-19T11:15:51;8.85;;;1.70;;
65583;SDS011;73032;43.592;1.458;2023-10-19T11:21:00;5.68;;;1.60;;
65583;SDS011;73032;43.592;1.458;2023-10-19T11:23:34;7.10;;;1.70;;
65583;SDS011;73032;43.592;1.458;2023-10-19T11:26:01;8.65;;;2.00;;
65583;SDS011;73032;43.592;1.458;2023-10-19T11:28:28;2.72;;;1.35;;
65583;SDS011;73032;43.592;1.458;2023-10-19T11:31:09;6.65;;;1.90;;
65583;SDS011;73032;43.592;1.458;2023-10-19T11:33:37;6.03;;;1.55;;
65583;SDS011;73032;43.592;1.458;2023-10-19T11:36:05;5.95;;;1.88;;
65583;SDS011;73032;43.592;1.458;2023-10-19T11:38:32;5.47;;;1.98;;
65583;SDS011;73032;43.592;1.458;2023-10-19T11:40:58;6.15;;;1.40;;
65583;SDS011;73032;43.592;1.458;2023-10-19T11:43:25;7.70;;;1.63;;
65583;SDS011;73032;43.592;1.458;2023-10-19T11:45:53;5.25;;;1.95;;
65583;SDS011;73032;43.592;1.458;2023-10-19T11:48:19;6.72;;;1.88;;
65583;SDS011;73032;43.592;1.458;2023-10-19T11:50:46;4.93;;;1.77;;
65583;SDS011;73032;43.592;1.458;2023-10-19T11:53:13;6.38;;;1.63;;
65583;SDS011;73032;43.592;1.458;2023-10-19T11:55:40;6.53;;;1.55;;
65583;SDS011;73032;43.592;1.458;2023-10-19T11:58:08;4.35;;;1.40;;
65583;SDS011;73032;43.592;1.458;2023-10-19T12:00:40;3.70;;;1.40;;
65583;SDS011;73032;43.592;1.458;2023-10-19T12:03:10;5.38;;;1.60;;
65583;SDS011;73032;43.592;1.458;2023-10-19T12:05:37;8.57;;;1.70;;
65583;SDS011;73032;43.592;1.458;2023-10-19T12:08:04;5.53;;;1.92;;
65583;SDS011;73032;43.592;1.458;2023-10-19T12:10:33;7.32;;;1.60;;
65583;SDS011;73032;43.592;1.458;2023-10-19T12:13:02;6.75;;;1.67;;
65583;SDS011;73032;43.592;1.458;2023-10-19T12:15:30;4.72;;;1.60;;
65583;SDS011;73032;43.592;1.458;2023-10-19T12:17:57;2.75;;;1.30;;
65583;SDS011;73032;43.592;1.458;2023-10-19T12:20:24;6.78;;;1.50;;
65583;SDS011;73032;43.592;1.458;2023-10-19T12:22:51;4.32;;;1.40;;
65583;SDS011;73032;43.592;1.458;2023-10-19T12:25:21;5.78;;;1.55;;
65583;SDS011;73032;43.592;1.458;2023-10-19T12:28:08;5.45;;;1.40;;
65583;SDS011;73032;43.592;1.458;2023-10-19T12:30:40;4.65;;;1.40;;
65583;SDS011;73032;43.592;1.458;2023-10-19T12:33:08;4.18;;;1.20;;
65583;SDS011;73032;43.592;1.458;2023-10-19T12:38:12;3.35;;;1.20;;
65583;SDS011;73032;43.592;1.458;2023-10-19T12:40:45;5.93;;;1.33;;
65583;SDS011;73032;43.592;1.458;2023-10-19T12:43:17;6.38;;;1.50;;
65583;SDS011;73032;43.592;1.458;2023-10-19T12:45:51;4.10;;;1.70;;
65583;SDS011;73032;43.592;1.458;2023-10-19T12:48:21;5.80;;;1.60;;
65583;SDS011;73032;43.592;1.458;2023-10-19T12:50:48;3.55;;;1.38;;
65583;SDS011;73032;43.592;1.458;2023-10-19T12:53:15;7.53;;;1.67;;
65583;SDS011;73032;43.592;1.458;2023-10-19T12:55:41;5.55;;;1.65;;
65583;SDS011;73032;43.592;1.458;2023-10-19T12:58:10;6.13;;;1.50;;
65583;SDS011;73032;43.592;1.458;2023-10-19T13:00:38;4.38;;;1.40;;
65583;SDS011;73032;43.592;1.458;2023-10-19T13:03:10;5.03;;;1.55;;
65583;SDS011;73032;43.592;1.458;2023-10-19T13:05:40;5.40;;;1.80;;
65583;SDS011;73032;43.592;1.458;2023-10-19T13:08:08;5.72;;;1.35;;
65583;SDS011;73032;43.592;1.458;2023-10-19T13:10:35;5.03;;;1.90;;
65583;SDS011;73032;43.592;1.458;2023-10-19T13:13:12;8.88;;;1.60;;
65583;SDS011;73032;43.592;1.458;2023-10-19T13:15:41;7.20;;;1.67;;
65583;SDS011;73032;43.592;1.458;2023-10-19T13:18:12;4.65;;;1.60;;
65583;SDS011;73032;43.592;1.458;2023-10-19T13:20:39;7.53;;;1.77;;
65583;SDS011;73032;43.592;1.458;2023-10-19T13:23:10;18.50;;;3.70;;
65583;SDS011;73032;43.592;1.458;2023-10-19T13:25:43;200.20;;;9.57;;
65583;SDS011;73032;43.592;1.458;2023-10-19T13:28:17;106.63;;;5.85;;
65583;SDS011;73032;43.592;1.458;2023-10-19T13:30:48;50.15;;;4.10;;
65583;SDS011;73032;43.592;1.458;2023-10-19T13:33:17;31.38;;;2.85;;
65583;SDS011;73032;43.592;1.458;2023-10-19T13:35:45;25.42;;;2.78;;
65583;SDS011;73032;43.592;1.458;2023-10-19T13:38:12;15.68;;;2.50;;
65583;SDS011;73032;43.592;1.458;2023-10-19T13:40:40;19.90;;;2.85;;
65583;SDS011;73032;43.592;1.458;2023-10-19T13:43:08;34.88;;;2.80;;
65583;SDS011;73032;43.592;1.458;2023-10-19T13:45:40;22.75;;;2.30;;
65583;SDS011;73032;43.592;1.458;2023-10-19T13:48:09;14.15;;;2.00;;
65583;SDS011;73032;43.592;1.458;2023-10-19T13:50:41;5.82;;;2.00;;
65583;SDS011;73032;43.592;1.458;2023-10-19T13:53:10;3.85;;;1.25;;
65583;SDS011;73032;43.592;1.458;2023-10-19T13:55:37;10.35;;;2.00;;
65583;SDS011;73032;43.592;1.458;2023-10-19T13:58:04;5.10;;;1.88;;
65583;SDS011;73032;43.592;1.458;2023-10-19T14:00:34;5.10;;;1.40;;
65583;SDS011;73032;43.592;1.458;2023-10-19T14:03:04;7.88;;;1.85;;
65583;SDS011;73032;43.592;1.458;2023-10-19T14:05:38;7.15;;;1.52;;
65583;SDS011;73032;43.592;1.458;2023-10-19T14:08:06;4.40;;;1.60;;
65583;SDS011;73032;43.592;1.458;2023-10-19T14:10:34;6.55;;;1.60;;
65583;SDS011;73032;43.592;1.458;2023-10-19T14:13:02;4.95;;;1.48;;
65583;SDS011;73032;43.592;1.458;2023-10-19T14:15:32;5.93;;;1.65;;
65583;SDS011;73032;43.592;1.458;2023-10-19T14:18:00;9.10;;;1.80;;
65583;SDS011;73032;43.592;1.458;2023-10-19T14:20:30;5.90;;;1.80;;
65583;SDS011;73032;43.592;1.458;2023-10-19T14:22:58;7.22;;;1.70;;
65583;SDS011;73032;43.592;1.458;2023-10-19T14:25:25;9.73;;;1.80;;
65583;SDS011;73032;43.592;1.458;2023-10-19T14:27:54;6.40;;;1.90;;
65583;SDS011;73032;43.592;1.458;2023-10-19T14:30:27;5.60;;;1.80;;
65583;SDS011;73032;43.592;1.458;2023-10-19T14:32:54;6.03;;;1.98;;
65583;SDS011;73032;43.592;1.458;2023-10-19T14:35:22;4.85;;;1.70;;
65583;SDS011;73032;43.592;1.458;2023-10-19T14:37:52;4.10;;;1.42;;
65583;SDS011;73032;43.592;1.458;2023-10-19T14:40:24;6.88;;;1.88;;
65583;SDS011;73032;43.592;1.458;2023-10-19T14:42:52;7.50;;;1.77;;
65583;SDS011;73032;43.592;1.458;2023-10-19T14:45:21;5.75;;;2.13;;
65583;SDS011;73032;43.592;1.458;2023-10-19T14:47:52;5.28;;;1.63;;
65583;SDS011;73032;43.592;1.458;2023-10-19T14:50:28;4.90;;;1.70;;
65583;SDS011;73032;43.592;1.458;2023-10-19T14:52:54;3.75;;;1.60;;
65583;SDS011;73032;43.592;1.458;2023-10-19T14:55:21;5.80;;;1.90;;
65583;SDS011;73032;43.592;1.458;2023-10-19T14:57:49;5.07;;;1.73;;
65583;SDS011;73032;43.592;1.458;2023-10-19T15:00:22;3.75;;;1.48;;
65583;SDS011;73032;43.592;1.458;2023-10-19T15:03:01;3.20;;;1.58;;
65583;SDS011;73032;43.592;1.458;2023-10-19T15:05:36;3.70;;;1.45;;
65583;SDS011;73032;43.592;1.458;2023-10-19T15:08:04;3.67;;;1.48;;
65583;SDS011;73032;43.592;1.458;2023-10-19T15:10:31;4.97;;;1.50;;
65583;SDS011;73032;43.592;1.458;2023-10-19T15:12:58;5.25;;;1.75;;
65583;SDS011;73032;43.592;1.458;2023-10-19T15:15:26;5.03;;;1.70;;
65583;SDS011;73032;43.592;1.458;2023-10-19T15:17:54;4.13;;;1.60;;
65583;SDS011;73032;43.592;1.458;2023-10-19T15:20:23;8.30;;;2.05;;
65583;SDS011;73032;43.592;1.458;2023-10-19T15:22:51;6.25;;;1.83;;
65583;SDS011;73032;43.592;1.458;2023-10-19T15:25:20;3.65;;;1.60;;
65583;SDS011;73032;43.592;1.458;2023-10-19T15:27:50;8.70;;;1.63;;
65583;SDS011;73032;43.592;1.458;2023-10-19T15:30:18;4.93;;;1.50;;
65583;SDS011;73032;43.592;1.458;2023-10-19T15:32:47;5.10;;;1.75;;
65583;SDS011;73032;43.592;1.458;2023-10-19T15:35:15;5.18;;;1.60;;
65583;SDS011;73032;43.592;1.458;2023-10-19T15:37:50;4.57;;;1.75;;
65583;SDS011;73032;43.592;1.458;2023-10-19T15:40:22;5.43;;;1.60;;
65583;SDS011;73032;43.592;1.458;2023-10-19T15:42:50;5.47;;;1.70;;
65583;SDS011;73032;43.592;1.458;2023-10-19T15:45:20;7.90;;;2.07;;